Murton, United Kingdom
Current Conditions -  °F | °C
As of 4:50 AM on Saturday 25 Oct 2014 (Local Time) from EGXU Reporting Station
Scattered Clouds Scattered Clouds  
Wind Chill: 50°   Ceiling: Unl
Heat Index: 50°   Visibility: 6mi
Dew Point: 43°   Wind: 10mph
Humidity: 76%   Direction: 220°SW
Pressure: 29.88"   Gusts: NA
Location:  53.97°N, 1.01°W
Report Text: EGXU 250350Z AUTO 22009KT 9999 // SCT230/// 10/06 Q1012
Loading
Personal Weather Stations






























Interactive Weather Map
Tropical Storm Tracking
New forecast layout! Learn more

10-Day Weather Forecast

Advertisements
Track Severe Weather on mobile